Time;durP1;ratioP1;P1;durP2;ratioP2;P2;SDS_P1;SDS_P2;PMS_P1;PMS_P2;Temp;Humidity;BMP_temperature;BMP_pressure;BME280_temperature;BME280_humidity;BME280_pressure;Samples;Min_cycle;Max_cycle;Signal;HPM_P1;HPM_P2
2021/08/10 00:00:30;;;;;;;5.30;1.60;;;16.50;99.90;;;;;;5017622;28;20026;-83
2021/08/10 00:02:55;;;;;;;4.72;1.80;;;16.50;99.90;;;;;;5009829;28;20657;-83
2021/08/10 00:05:21;;;;;;;6.43;1.58;;;16.40;99.90;;;;;;5016989;28;20069;-83
2021/08/10 00:07:47;;;;;;;4.25;1.35;;;16.40;99.90;;;;;;5011876;28;20040;-83
2021/08/10 00:10:13;;;;;;;3.08;1.27;;;16.30;99.90;;;;;;5017268;28;20112;-82
2021/08/10 00:12:38;;;;;;;4.93;1.48;;;16.30;99.90;;;;;;5015258;28;20026;-82
2021/08/10 00:15:06;;;;;;;4.85;1.52;;;16.20;99.90;;;;;;5017049;28;20033;-82
2021/08/10 00:17:32;;;;;;;3.58;1.33;;;16.30;99.90;;;;;;5017070;28;20680;-83
2021/08/10 00:19:58;;;;;;;7.13;1.60;;;16.20;99.90;;;;;;5016677;28;20045;-82
2021/08/10 00:22:25;;;;;;;3.30;1.42;;;16.20;99.90;;;;;;5011055;28;20811;-82
2021/08/10 00:24:51;;;;;;;4.45;1.50;;;16.20;99.90;;;;;;5020681;28;20025;-83
2021/08/10 00:27:16;;;;;;;5.30;1.50;;;16.20;99.90;;;;;;5022937;28;20037;-83
2021/08/10 00:29:42;;;;;;;3.67;1.55;;;16.20;99.90;;;;;;5010529;28;20018;-83
2021/08/10 00:32:08;;;;;;;4.78;1.30;;;16.20;99.90;;;;;;5006342;28;20026;-83
2021/08/10 00:34:34;;;;;;;5.40;1.75;;;16.30;99.90;;;;;;5010689;28;20054;-82
2021/08/10 00:36:59;;;;;;;3.92;1.30;;;16.10;99.90;;;;;;5019639;28;20036;-83
2021/08/10 00:39:25;;;;;;;3.70;1.02;;;16.10;99.90;;;;;;5021670;28;21215;-83
2021/08/10 00:41:51;;;;;;;6.20;1.35;;;16.10;99.90;;;;;;5017198;28;20078;-83
2021/08/10 00:44:16;;;;;;;3.17;1.25;;;16.10;99.90;;;;;;5011694;28;20125;-83
2021/08/10 00:46:42;;;;;;;4.40;1.33;;;16.10;99.90;;;;;;5005776;28;20073;-83
2021/08/10 00:49:08;;;;;;;4.60;1.30;;;16.20;99.90;;;;;;5016872;28;20029;-82
2021/08/10 00:51:34;;;;;;;4.15;1.45;;;16.00;99.90;;;;;;5015947;28;20022;-81
2021/08/10 00:54:02;;;;;;;5.18;1.25;;;16.00;99.90;;;;;;5017198;28;20026;-82
2021/08/10 00:56:28;;;;;;;4.35;1.35;;;16.00;99.90;;;;;;5011306;28;20109;-82
2021/08/10 00:58:53;;;;;;;4.60;1.50;;;16.00;99.90;;;;;;5014897;28;20054;-82
2021/08/10 01:01:19;;;;;;;3.58;1.35;;;15.90;99.90;;;;;;5014795;28;20061;-82
2021/08/10 01:03:45;;;;;;;4.18;1.40;;;15.90;99.90;;;;;;5028849;28;20032;-83
2021/08/10 01:06:23;;;;;;;3.50;1.10;;;15.90;99.90;;;;;;5009386;28;20030;-82
2021/08/10 01:08:58;;;;;;;3.25;1.20;;;15.90;99.90;;;;;;4996897;28;20025;-82
2021/08/10 01:11:39;;;;;;;5.72;1.55;;;15.90;99.90;;;;;;5014197;28;20026;-83
2021/08/10 01:14:33;;;;;;;2.45;1.13;;;15.90;99.90;;;;;;5010667;28;20143;-82
2021/08/10 01:17:03;;;;;;;3.95;1.25;;;15.80;99.90;;;;;;5008631;28;20458;-82
2021/08/10 01:19:44;;;;;;;4.45;1.40;;;15.80;99.90;;;;;;5016302;28;20022;-82
2021/08/10 01:22:16;;;;;;;3.58;1.30;;;15.80;99.90;;;;;;4998885;28;20022;-82
2021/08/10 01:25:00;;;;;;;5.03;1.63;;;15.80;99.90;;;;;;4986097;28;20119;-83
2021/08/10 01:27:51;;;;;;;3.15;1.33;;;15.80;99.90;;;;;;5015702;28;20041;-82
2021/08/10 01:30:31;;;;;;;3.10;1.02;;;15.70;99.90;;;;;;5032795;28;20109;-82
2021/08/10 01:32:59;;;;;;;4.70;1.50;;;15.80;99.90;;;;;;5007962;28;20117;-82
2021/08/10 01:35:26;;;;;;;3.50;1.20;;;15.70;99.90;;;;;;5026790;28;20386;-82
2021/08/10 01:37:58;;;;;;;2.90;1.38;;;15.70;99.90;;;;;;4996454;28;20033;-82
2021/08/10 01:40:26;;;;;;;4.45;1.20;;;15.70;99.90;;;;;;5013396;28;20028;-82
2021/08/10 01:42:55;;;;;;;3.95;1.35;;;15.60;99.90;;;;;;5025574;28;20379;-83
2021/08/10 01:45:22;;;;;;;5.28;1.58;;;15.60;99.90;;;;;;5008204;28;20026;-83
2021/08/10 01:47:48;;;;;;;5.88;2.10;;;15.60;99.90;;;;;;5016918;28;20501;-82
2021/08/10 01:50:15;;;;;;;5.95;1.60;;;15.70;99.90;;;;;;5018270;28;20034;-83
2021/08/10 01:52:43;;;;;;;4.97;1.20;;;15.70;99.90;;;;;;5016840;28;20014;-83
2021/08/10 01:55:10;;;;;;;3.28;1.25;;;15.70;99.90;;;;;;5012518;28;20451;-82
2021/08/10 01:57:37;;;;;;;3.40;1.25;;;15.70;99.90;;;;;;4999809;28;20134;-82
2021/08/10 02:00:04;;;;;;;3.78;1.40;;;15.60;99.90;;;;;;5000892;28;20390;-82
2021/08/10 02:02:32;;;;;;;4.35;1.45;;;15.60;99.90;;;;;;4995928;28;20487;-82
2021/08/10 02:04:59;;;;;;;4.85;1.45;;;15.60;99.90;;;;;;5010777;28;20040;-82
2021/08/10 02:07:24;;;;;;;2.67;1.38;;;15.60;99.90;;;;;;5017275;28;20036;-82
2021/08/10 02:09:53;;;;;;;6.43;1.60;;;15.60;99.90;;;;;;5016736;28;20112;-82
2021/08/10 02:12:19;;;;;;;5.28;1.60;;;15.50;99.90;;;;;;5013611;28;20030;-83
2021/08/10 02:14:45;;;;;;;7.53;1.52;;;15.50;99.90;;;;;;5017322;28;20022;-83
2021/08/10 02:17:14;;;;;;;4.30;1.40;;;15.50;99.90;;;;;;5010466;28;20052;-82
2021/08/10 02:19:39;;;;;;;3.25;1.40;;;15.50;99.90;;;;;;5030229;28;20513;-82
2021/08/10 02:22:09;;;;;;;3.95;1.50;;;15.60;99.90;;;;;;5002968;28;20030;-82
2021/08/10 02:24:50;;;;;;;4.72;1.60;;;15.50;99.90;;;;;;5011301;28;20033;-82
2021/08/10 02:27:27;;;;;;;6.05;1.60;;;15.50;99.90;;;;;;5011751;28;20044;-82
2021/08/10 02:29:54;;;;;;;2.40;1.13;;;15.40;99.90;;;;;;5013786;28;20105;-83
2021/08/10 02:32:25;;;;;;;3.72;1.52;;;15.40;99.90;;;;;;5017054;28;20084;-83
2021/08/10 02:34:52;;;;;;;4.30;1.67;;;15.40;99.90;;;;;;5032703;28;20091;-83
2021/08/10 02:37:19;;;;;;;5.10;1.52;;;15.40;99.90;;;;;;5016632;28;20033;-82
2021/08/10 02:39:47;;;;;;;3.90;1.40;;;15.30;99.90;;;;;;5014887;28;20372;-82
2021/08/10 02:42:16;;;;;;;3.35;1.40;;;15.20;99.90;;;;;;5015313;28;20033;-82
2021/08/10 02:44:44;;;;;;;6.55;1.88;;;15.30;99.90;;;;;;5016640;28;20029;-82
2021/08/10 02:47:11;;;;;;;3.47;1.50;;;15.20;99.90;;;;;;5015393;28;20470;-82
2021/08/10 02:49:39;;;;;;;6.25;1.52;;;15.20;99.90;;;;;;5012655;28;20498;-82
2021/08/10 02:52:05;;;;;;;4.60;1.50;;;15.10;99.90;;;;;;5016605;28;20022;-82
2021/08/10 02:54:31;;;;;;;4.18;1.58;;;15.20;99.90;;;;;;5016857;28;20022;-82
2021/08/10 02:57:05;;;;;;;4.15;1.75;;;15.10;99.90;;;;;;5024770;28;20043;-82
2021/08/10 02:59:38;;;;;;;3.30;1.48;;;15.10;99.90;;;;;;5011470;28;20022;-82
2021/08/10 03:02:11;;;;;;;4.32;1.67;;;15.10;99.90;;;;;;5016449;28;20084;-82
2021/08/10 03:04:45;;;;;;;3.60;1.40;;;15.10;99.90;;;;;;5014538;28;20136;-83
2021/08/10 03:07:11;;;;;;;3.20;1.10;;;15.10;99.90;;;;;;5012397;28;20030;-84
2021/08/10 03:09:37;;;;;;;3.30;1.40;;;15.00;99.90;;;;;;5015427;28;20026;-82
2021/08/10 03:12:05;;;;;;;3.03;1.50;;;15.00;99.90;;;;;;5015502;28;20033;-82
2021/08/10 03:14:32;;;;;;;4.15;1.40;;;14.90;99.90;;;;;;5015425;28;20082;-82
2021/08/10 03:17:01;;;;;;;4.15;1.60;;;14.90;99.90;;;;;;5015392;28;20022;-82
2021/08/10 03:19:27;;;;;;;4.70;1.90;;;14.70;99.90;;;;;;5016503;28;20121;-82
2021/08/10 03:21:55;;;;;;;4.00;1.58;;;14.80;99.90;;;;;;5004106;28;20038;-82
2021/08/10 03:24:25;;;;;;;5.28;2.15;;;14.80;99.90;;;;;;4999545;28;20022;-82
2021/08/10 03:26:54;;;;;;;5.20;2.00;;;14.70;99.90;;;;;;5015920;28;20144;-82
2021/08/10 03:29:21;;;;;;;6.72;2.20;;;14.70;99.90;;;;;;4995002;28;20026;-82
2021/08/10 03:31:47;;;;;;;4.20;1.80;;;14.70;99.90;;;;;;5024167;28;20103;-82
2021/08/10 03:34:15;;;;;;;4.28;1.70;;;14.80;99.90;;;;;;5015574;28;20144;-82
2021/08/10 03:36:42;;;;;;;6.78;1.98;;;14.80;99.90;;;;;;5014539;28;20037;-82
2021/08/10 03:39:08;;;;;;;5.90;2.03;;;14.80;99.90;;;;;;4989344;28;20061;-82
2021/08/10 03:41:34;;;;;;;11.75;3.33;;;14.80;99.90;;;;;;5013879;28;20026;-82
2021/08/10 03:44:00;;;;;;;6.03;2.35;;;14.70;99.90;;;;;;5015472;28;20026;-83
2021/08/10 03:46:30;;;;;;;6.07;2.58;;;14.70;99.90;;;;;;5024250;28;20140;-82
2021/08/10 03:48:56;;;;;;;4.50;2.30;;;14.70;99.90;;;;;;5026686;28;20081;-82
2021/08/10 03:51:22;;;;;;;5.32;2.42;;;14.60;99.90;;;;;;5016198;28;20076;-82
2021/08/10 03:53:48;;;;;;;5.35;2.15;;;14.70;99.90;;;;;;5014371;28;20022;-82
2021/08/10 03:56:15;;;;;;;4.00;1.70;;;14.70;99.90;;;;;;4997469;28;20525;-82
2021/08/10 03:58:42;;;;;;;5.15;1.80;;;14.60;99.90;;;;;;5000042;28;20033;-82
2021/08/10 04:01:10;;;;;;;4.57;2.10;;;14.60;99.90;;;;;;5029990;28;20439;-82
2021/08/10 04:03:37;;;;;;;4.22;1.88;;;14.60;99.90;;;;;;5005998;28;20498;-82
2021/08/10 04:06:05;;;;;;;6.30;2.10;;;14.60;99.90;;;;;;5015913;28;20434;-82
2021/08/10 04:08:31;;;;;;;4.43;2.10;;;14.50;99.90;;;;;;5014883;28;20032;-82
2021/08/10 04:10:58;;;;;;;5.13;1.60;;;14.50;99.90;;;;;;5019321;28;20064;-82
2021/08/10 04:13:24;;;;;;;5.25;1.65;;;14.40;99.90;;;;;;5017440;28;20017;-82
2021/08/10 04:15:51;;;;;;;4.72;1.70;;;14.50;99.90;;;;;;5005355;28;20026;-82
2021/08/10 04:18:20;;;;;;;4.25;1.85;;;14.50;99.90;;;;;;5026728;28;20022;-82
2021/08/10 04:20:47;;;;;;;5.10;1.88;;;14.50;99.90;;;;;;5008294;28;20036;-82
2021/08/10 04:23:13;;;;;;;4.18;1.80;;;14.40;99.90;;;;;;5013741;28;20045;-81
2021/08/10 04:25:39;;;;;;;3.83;1.92;;;14.50;99.90;;;;;;5016667;28;20112;-82
2021/08/10 04:28:04;;;;;;;4.38;1.65;;;14.30;99.90;;;;;;5015900;28;20164;-82
2021/08/10 04:30:30;;;;;;;4.50;2.22;;;14.40;99.90;;;;;;5003998;28;20037;-82
2021/08/10 04:32:56;;;;;;;4.70;2.00;;;14.40;99.90;;;;;;5013759;28;20041;-82
2021/08/10 04:35:22;;;;;;;4.35;2.08;;;14.40;99.90;;;;;;5002528;28;20026;-82
2021/08/10 04:37:48;;;;;;;5.22;1.98;;;14.50;99.90;;;;;;5013636;28;20375;-82
2021/08/10 04:40:13;;;;;;;6.80;2.33;;;14.50;99.90;;;;;;4997722;28;20376;-83
2021/08/10 04:42:39;;;;;;;5.65;2.25;;;14.60;99.90;;;;;;5020078;28;20154;-82
2021/08/10 04:45:05;;;;;;;6.43;2.28;;;14.60;99.90;;;;;;5013473;28;20038;-82
2021/08/10 04:47:31;;;;;;;4.47;2.28;;;14.60;99.90;;;;;;5011271;28;20030;-81
2021/08/10 04:49:58;;;;;;;7.93;2.20;;;14.70;99.90;;;;;;5007374;28;20387;-83
2021/08/10 04:52:24;;;;;;;5.82;2.10;;;14.70;99.90;;;;;;5014233;28;20033;-83
2021/08/10 04:54:50;;;;;;;4.82;2.15;;;14.70;99.90;;;;;;5018069;28;20021;-83
2021/08/10 04:57:16;;;;;;;4.82;2.13;;;14.80;99.90;;;;;;5014411;28;20595;-82
2021/08/10 04:59:42;;;;;;;4.47;2.03;;;14.80;99.90;;;;;;5010835;28;20057;-83
2021/08/10 05:02:07;;;;;;;3.45;1.92;;;14.80;99.90;;;;;;5016174;28;20187;-83
2021/08/10 05:04:33;;;;;;;4.50;2.10;;;14.80;99.90;;;;;;5015603;28;20085;-83
2021/08/10 05:07:01;;;;;;;4.40;2.03;;;14.90;99.90;;;;;;5031025;28;20026;-82
2021/08/10 05:09:27;;;;;;;2.90;1.55;;;15.00;99.90;;;;;;5007113;28;20113;-83
2021/08/10 05:11:53;;;;;;;4.75;2.25;;;15.10;99.90;;;;;;5018199;28;20447;-83
2021/08/10 05:14:18;;;;;;;5.55;2.20;;;15.20;99.90;;;;;;5016611;28;20025;-83
2021/08/10 05:16:44;;;;;;;4.45;1.80;;;15.20;99.90;;;;;;5015089;28;20052;-83
2021/08/10 05:19:09;;;;;;;6.20;2.00;;;15.40;99.90;;;;;;5004311;28;20390;-82
2021/08/10 05:21:35;;;;;;;4.88;1.98;;;15.40;99.90;;;;;;5016708;28;20121;-82
2021/08/10 05:24:01;;;;;;;4.60;1.77;;;15.50;99.90;;;;;;5017036;28;20034;-83
2021/08/10 05:26:26;;;;;;;6.15;2.00;;;15.50;99.90;;;;;;5010307;28;20494;-82
2021/08/10 05:28:52;;;;;;;5.63;1.90;;;15.50;99.90;;;;;;5013260;28;20058;-83
2021/08/10 05:31:17;;;;;;;4.40;1.80;;;15.60;99.90;;;;;;5014453;28;20040;-83
2021/08/10 05:33:43;;;;;;;5.47;1.95;;;15.60;99.90;;;;;;5003438;28;20452;-83
2021/08/10 05:36:09;;;;;;;5.60;1.90;;;15.60;99.90;;;;;;5015103;28;20030;-83
2021/08/10 05:38:35;;;;;;;5.63;1.60;;;15.60;99.90;;;;;;5018895;28;20023;-83
2021/08/10 05:41:00;;;;;;;4.25;1.88;;;15.60;99.90;;;;;;5018302;28;20108;-83
2021/08/10 05:43:26;;;;;;;8.07;2.17;;;15.70;99.90;;;;;;4999649;28;20026;-83
2021/08/10 05:45:51;;;;;;;5.03;1.50;;;15.80;99.90;;;;;;4998144;28;20033;-83
2021/08/10 05:48:17;;;;;;;5.53;1.95;;;15.70;99.90;;;;;;5002634;28;20104;-82
2021/08/10 05:50:45;;;;;;;5.95;1.80;;;15.80;99.90;;;;;;5029443;28;20117;-82
2021/08/10 05:53:11;;;;;;;4.45;1.60;;;15.80;99.90;;;;;;4998831;28;20037;-83
2021/08/10 05:55:37;;;;;;;6.20;1.90;;;16.00;99.90;;;;;;5014707;28;20026;-82
2021/08/10 05:58:03;;;;;;;4.90;1.77;;;15.90;99.90;;;;;;5015101;28;20033;-82
2021/08/10 06:00:28;;;;;;;4.63;1.80;;;16.00;99.90;;;;;;4997400;28;20026;-83
2021/08/10 06:02:55;;;;;;;5.70;1.75;;;16.00;99.90;;;;;;5014365;28;20044;-83
2021/08/10 06:05:20;;;;;;;6.72;1.75;;;16.10;99.90;;;;;;4998421;28;20026;-83
2021/08/10 06:07:46;;;;;;;6.05;1.90;;;16.10;99.90;;;;;;5012426;28;20033;-83
2021/08/10 06:10:12;;;;;;;4.97;1.92;;;16.20;99.90;;;;;;5012148;28;20021;-83
2021/08/10 06:12:37;;;;;;;3.90;1.63;;;16.20;99.90;;;;;;4997846;28;20107;-82
2021/08/10 06:15:03;;;;;;;5.05;1.63;;;16.30;99.90;;;;;;4996362;28;20179;-83
2021/08/10 06:17:29;;;;;;;5.05;1.58;;;16.30;99.90;;;;;;5017239;28;20509;-83
2021/08/10 06:19:55;;;;;;;6.82;1.88;;;16.30;99.90;;;;;;5016680;28;20033;-82
2021/08/10 06:22:20;;;;;;;4.85;1.60;;;16.40;99.90;;;;;;5002785;28;20026;-81
2021/08/10 06:24:46;;;;;;;5.55;2.13;;;16.60;99.90;;;;;;5021485;28;20026;-82
2021/08/10 06:27:12;;;;;;;4.18;1.80;;;16.60;99.90;;;;;;5001566;28;20029;-82
2021/08/10 06:29:37;;;;;;;6.95;2.10;;;16.60;99.90;;;;;;5020834;28;20120;-82
2021/08/10 06:32:03;;;;;;;4.40;1.63;;;16.60;99.90;;;;;;5017860;28;20125;-82
2021/08/10 06:34:29;;;;;;;5.40;1.73;;;16.60;99.90;;;;;;5002926;28;20029;-82
2021/08/10 06:36:54;;;;;;;4.43;1.63;;;16.70;99.90;;;;;;5001354;28;20033;-82
2021/08/10 06:39:20;;;;;;;5.40;2.13;;;16.70;99.90;;;;;;5002571;28;20025;-82
2021/08/10 06:41:46;;;;;;;4.35;1.75;;;16.80;99.90;;;;;;5020863;28;20053;-81
2021/08/10 06:44:11;;;;;;;4.93;1.88;;;16.60;99.90;;;;;;5015429;28;20030;-81
2021/08/10 06:46:37;;;;;;;5.53;2.33;;;16.70;99.90;;;;;;5019798;28;20044;-82
2021/08/10 06:49:02;;;;;;;7.93;2.40;;;16.60;99.90;;;;;;5017979;28;20079;-82
2021/08/10 06:51:28;;;;;;;5.22;2.03;;;16.80;99.90;;;;;;5020862;28;20410;-83
2021/08/10 06:53:54;;;;;;;7.00;2.30;;;17.00;99.90;;;;;;4999664;28;20021;-82
2021/08/10 06:56:19;;;;;;;6.43;2.42;;;17.00;99.90;;;;;;5001675;28;20034;-82
2021/08/10 06:58:45;;;;;;;9.90;2.70;;;17.10;99.90;;;;;;5017970;28;20038;-85
2021/08/10 07:01:10;;;;;;;8.82;2.17;;;16.90;99.90;;;;;;5013957;28;20030;-85
2021/08/10 07:03:36;;;;;;;7.13;2.50;;;17.00;99.90;;;;;;5013535;28;20030;-85
2021/08/10 07:06:01;;;;;;;7.85;1.90;;;17.00;99.90;;;;;;4998066;28;20060;-86
2021/08/10 07:08:27;;;;;;;7.20;2.55;;;17.20;99.90;;;;;;5017239;28;20034;-86
2021/08/10 07:10:53;;;;;;;7.50;2.25;;;17.50;99.90;;;;;;4998028;28;20077;-86
2021/08/10 07:13:18;;;;;;;12.30;3.03;;;17.60;99.90;;;;;;4998275;28;20117;-85
2021/08/10 07:15:44;;;;;;;6.93;2.22;;;17.80;99.90;;;;;;4998540;28;20045;-86
2021/08/10 07:18:09;;;;;;;6.90;2.00;;;18.10;99.90;;;;;;5015454;28;20113;-85
2021/08/10 07:20:35;;;;;;;6.97;2.00;;;18.20;99.90;;;;;;5000172;28;20493;-85
2021/08/10 07:23:01;;;;;;;8.48;2.22;;;18.30;99.90;;;;;;4995738;28;20050;-85
2021/08/10 07:25:26;;;;;;;6.82;2.35;;;18.20;99.90;;;;;;4999679;28;20014;-86
2021/08/10 07:27:52;;;;;;;7.32;1.85;;;18.40;99.90;;;;;;5015685;28;20615;-85
2021/08/10 07:30:18;;;;;;;6.05;2.28;;;18.60;99.90;;;;;;4998233;28;20111;-86
2021/08/10 07:32:43;;;;;;;5.90;1.70;;;18.70;99.90;;;;;;5015619;28;20021;-88
2021/08/10 07:35:09;;;;;;;6.72;1.77;;;18.80;99.90;;;;;;4993723;28;20084;-86
2021/08/10 07:37:42;;;;;;;4.15;2.17;;;18.90;99.90;;;;;;4989214;28;20026;-86
2021/08/10 07:40:10;;;;;;;8.60;2.28;;;19.00;99.90;;;;;;5011624;28;20475;-86
2021/08/10 07:42:36;;;;;;;7.07;2.20;;;19.10;99.90;;;;;;4997194;28;20091;-89
2021/08/10 07:45:02;;;;;;;9.55;2.65;;;18.90;99.90;;;;;;5006381;28;20490;-85
2021/08/10 07:47:28;;;;;;;6.05;2.45;;;19.00;99.90;;;;;;5004536;28;20085;-84
2021/08/10 07:49:53;;;;;;;4.78;2.05;;;19.10;99.90;;;;;;5011407;28;20045;-85
2021/08/10 07:52:19;;;;;;;7.90;2.25;;;18.90;99.90;;;;;;5013002;28;20018;-85
2021/08/10 07:54:44;;;;;;;5.60;2.00;;;18.80;99.90;;;;;;5022581;28;20017;-85
2021/08/10 07:57:11;;;;;;;6.20;2.28;;;18.90;99.90;;;;;;5004383;28;20503;-87
2021/08/10 07:59:39;;;;;;;5.53;2.00;;;19.10;99.90;;;;;;5006620;28;20065;-85
2021/08/10 08:02:06;;;;;;;5.35;2.17;;;19.20;99.90;;;;;;5014387;28;20491;-85
2021/08/10 08:04:35;;;;;;;6.07;1.90;;;19.50;99.90;;;;;;4998966;28;20034;-85
2021/08/10 08:07:04;;;;;;;6.75;1.98;;;19.70;99.90;;;;;;4998360;28;20060;-85
2021/08/10 08:09:30;;;;;;;5.55;1.75;;;19.90;99.90;;;;;;5009012;28;20040;-85
2021/08/10 08:11:55;;;;;;;5.88;2.10;;;19.70;99.90;;;;;;4993018;28;20486;-85
2021/08/10 08:14:23;;;;;;;5.25;2.03;;;19.70;99.90;;;;;;5002040;28;20577;-85
2021/08/10 08:16:49;;;;;;;6.78;2.00;;;19.80;99.90;;;;;;4991171;28;20030;-86
2021/08/10 08:19:15;;;;;;;4.40;1.80;;;19.90;99.90;;;;;;4997633;28;20091;-86
2021/08/10 08:21:42;;;;;;;6.57;2.10;;;20.00;99.90;;;;;;4994276;28;20029;-86
2021/08/10 08:24:08;;;;;;;10.02;1.77;;;20.20;99.90;;;;;;5024006;28;20036;-86
2021/08/10 08:26:34;;;;;;;5.15;1.75;;;20.20;99.90;;;;;;4999188;28;20037;-86
2021/08/10 08:29:00;;;;;;;6.55;1.70;;;20.20;99.90;;;;;;5010343;28;20022;-87
2021/08/10 08:31:26;;;;;;;4.93;1.42;;;20.30;99.90;;;;;;5008645;28;20037;-86
2021/08/10 08:33:52;;;;;;;9.27;1.77;;;20.40;99.90;;;;;;5006244;28;20607;-86
2021/08/10 08:36:18;;;;;;;4.75;1.38;;;20.40;99.90;;;;;;4990337;28;20692;-87
2021/08/10 08:38:46;;;;;;;3.70;1.60;;;20.50;99.90;;;;;;4988729;28;20034;-85
2021/08/10 08:41:14;;;;;;;5.40;1.63;;;20.50;99.90;;;;;;5009314;28;20089;-86
2021/08/10 08:43:42;;;;;;;4.80;1.80;;;20.50;99.90;;;;;;5008949;28;20048;-87
2021/08/10 08:46:11;;;;;;;4.30;1.48;;;20.60;99.90;;;;;;4999817;28;20041;-87
2021/08/10 08:48:38;;;;;;;5.15;1.40;;;20.60;99.90;;;;;;5025165;28;20052;-86
2021/08/10 08:51:08;;;;;;;4.72;1.30;;;20.90;99.90;;;;;;5009708;28;20021;-88
2021/08/10 08:53:34;;;;;;;8.40;1.60;;;21.10;99.90;;;;;;5010265;28;20018;-87
2021/08/10 08:56:00;;;;;;;4.65;1.52;;;21.30;99.90;;;;;;4989182;28;20582;-87
2021/08/10 08:58:26;;;;;;;5.05;1.20;;;21.50;99.90;;;;;;5008316;28;20096;-87
2021/08/10 09:00:51;;;;;;;3.28;1.20;;;21.60;99.90;;;;;;4996074;28;20030;-87
2021/08/10 09:03:17;;;;;;;3.72;1.25;;;21.70;99.90;;;;;;4995306;28;20406;-87
2021/08/10 09:05:47;;;;;;;3.80;1.40;;;21.80;99.90;;;;;;4999782;28;20521;-87
2021/08/10 09:08:30;;;;;;;4.32;1.23;;;21.60;99.90;;;;;;4989320;28;20035;-87
2021/08/10 09:11:04;;;;;;;3.28;1.20;;;21.40;99.90;;;;;;5003214;28;20037;-87
2021/08/10 09:13:31;;;;;;;9.52;1.30;;;21.50;99.90;;;;;;4995219;28;20046;-86
2021/08/10 09:16:06;;;;;;;4.53;1.20;;;21.50;99.90;;;;;;5000263;28;20022;-86
2021/08/10 09:18:36;;;;;;;5.95;1.42;;;21.60;99.90;;;;;;5006682;28;20260;-86
2021/08/10 09:21:09;;;;;;;4.63;1.27;;;21.80;99.90;;;;;;4994630;28;20089;-86
2021/08/10 09:23:43;;;;;;;3.42;1.25;;;21.90;99.90;;;;;;5008064;28;20041;-86
2021/08/10 09:26:10;;;;;;;1.83;0.90;;;21.90;99.90;;;;;;5009706;28;20026;-86
2021/08/10 09:28:36;;;;;;;4.05;1.70;;;22.00;99.90;;;;;;4982104;28;20049;-86
2021/08/10 09:31:30;;;;;;;3.53;1.20;;;22.00;99.90;;;;;;4980028;28;20033;-86
2021/08/10 09:33:57;;;;;;;5.53;1.13;;;21.90;99.90;;;;;;4992800;28;20018;-86
2021/08/10 09:36:23;;;;;;;3.78;1.27;;;21.90;99.90;;;;;;4994802;28;20030;-87
2021/08/10 09:38:48;;;;;;;4.82;1.20;;;22.00;99.90;;;;;;5004510;28;20554;-86
2021/08/10 09:41:14;;;;;;;3.80;1.20;;;22.20;99.90;;;;;;4995547;28;20121;-86
2021/08/10 09:43:41;;;;;;;3.38;0.90;;;22.10;99.90;;;;;;5009887;28;20467;-86
2021/08/10 09:46:15;;;;;;;4.13;0.93;;;22.10;99.90;;;;;;5008797;28;20034;-86
2021/08/10 09:49:02;;;;;;;2.88;0.90;;;22.00;99.90;;;;;;4991133;28;20474;-87
2021/08/10 09:51:32;;;;;;;4.80;0.82;;;22.20;99.90;;;;;;5006447;28;20081;-86
2021/08/10 09:54:04;;;;;;;4.57;1.00;;;22.20;99.90;;;;;;5000487;28;20022;-86
2021/08/10 09:56:36;;;;;;;;;;;22.10;99.90;;;;;;5011798;28;20415;-87
2021/08/10 09:59:01;;;;;;;5.35;1.00;;;22.20;99.90;;;;;;4995570;28;19906;-88
2021/08/10 10:01:32;;;;;;;3.97;0.90;;;22.40;99.90;;;;;;5008491;28;20033;-87
2021/08/10 10:04:09;;;;;;;3.75;1.30;;;22.50;99.90;;;;;;4993369;28;20030;-87
2021/08/10 10:06:35;;;;;;;3.22;0.77;;;22.50;99.90;;;;;;5011746;28;20979;-87
2021/08/10 10:09:01;;;;;;;2.72;0.90;;;22.70;99.90;;;;;;5008406;28;20025;-87
2021/08/10 10:11:27;;;;;;;2.70;1.02;;;22.70;99.90;;;;;;5009776;28;20373;-86
2021/08/10 10:13:54;;;;;;;2.70;0.90;;;22.80;99.90;;;;;;5008645;28;20044;-87
2021/08/10 10:16:20;;;;;;;3.85;0.95;;;22.90;99.90;;;;;;5009114;28;20508;-87
2021/08/10 10:18:47;;;;;;;2.13;0.77;;;23.00;99.90;;;;;;5010066;28;20679;-88
2021/08/10 10:21:21;;;;;;;3.05;0.70;;;23.10;99.90;;;;;;4994316;28;20501;-88
2021/08/10 10:23:51;;;;;;;2.42;0.88;;;23.10;99.90;;;;;;4993286;28;20038;-87
2021/08/10 10:26:18;;;;;;;2.08;0.85;;;23.20;99.60;;;;;;4991902;28;20033;-87
2021/08/10 10:28:44;;;;;;;3.25;0.85;;;23.30;99.60;;;;;;4990266;28;20050;-86
2021/08/10 10:31:10;;;;;;;3.25;1.00;;;23.30;99.80;;;;;;4990982;28;20026;-87
2021/08/10 10:33:36;;;;;;;4.78;0.90;;;23.40;99.30;;;;;;5014214;28;20091;-87
2021/08/10 10:36:03;;;;;;;2.80;0.90;;;23.40;99.30;;;;;;4992713;28;20030;-87
2021/08/10 10:38:31;;;;;;;2.65;0.80;;;23.50;99.40;;;;;;5013283;28;20049;-87
2021/08/10 10:41:00;;;;;;;3.22;1.00;;;23.70;98.90;;;;;;5005890;28;20494;-87
2021/08/10 10:43:27;;;;;;;3.13;0.90;;;23.80;99.10;;;;;;5009544;28;20061;-87
2021/08/10 10:45:54;;;;;;;3.65;0.98;;;23.80;98.90;;;;;;4999888;28;20033;-87
2021/08/10 10:48:26;;;;;;;3.72;1.02;;;24.10;98.80;;;;;;5011581;28;20037;-87
2021/08/10 10:51:15;;;;;;;4.25;1.63;;;24.10;98.50;;;;;;5019174;28;20026;-88
2021/08/10 10:53:46;;;;;;;4.60;1.40;;;24.20;98.20;;;;;;5006824;28;20026;-87
2021/08/10 10:56:28;;;;;;;5.63;1.27;;;24.40;98.50;;;;;;5012136;28;20035;-87
2021/08/10 10:58:56;;;;;;;4.80;1.08;;;24.50;98.00;;;;;;4998433;28;20442;-87
2021/08/10 11:01:30;;;;;;;4.20;1.10;;;24.80;98.10;;;;;;5005132;28;20418;-86
2021/08/10 11:04:08;;;;;;;3.72;0.82;;;24.90;97.50;;;;;;5002858;28;20045;-86
2021/08/10 11:06:42;;;;;;;3.78;0.98;;;25.00;97.40;;;;;;5011231;28;20033;-87
2021/08/10 11:09:29;;;;;;;3.83;1.35;;;25.10;97.00;;;;;;4991745;28;20018;-85
2021/08/10 11:11:55;;;;;;;3.70;1.10;;;25.10;96.50;;;;;;5011827;28;20117;-85
2021/08/10 11:14:36;;;;;;;5.82;1.23;;;25.00;96.20;;;;;;4994790;28;20430;-85
2021/08/10 11:17:08;;;;;;;3.20;1.10;;;24.90;96.70;;;;;;5008690;28;20022;-85
2021/08/10 11:19:35;;;;;;;3.25;1.38;;;24.90;97.20;;;;;;5009348;28;20029;-84
2021/08/10 11:22:16;;;;;;;4.43;0.93;;;25.00;97.10;;;;;;4990916;28;20096;-84
2021/08/10 11:25:01;;;;;;;3.97;1.10;;;25.00;96.50;;;;;;4994391;28;20089;-85
2021/08/10 11:27:41;;;;;;;3.05;1.15;;;24.90;96.90;;;;;;4991183;28;20077;-85
2021/08/10 11:30:29;;;;;;;3.83;1.00;;;24.90;96.80;;;;;;4991997;28;20076;-85
2021/08/10 11:32:55;;;;;;;3.05;1.17;;;24.90;96.70;;;;;;4986625;28;20038;-85
2021/08/10 11:35:48;;;;;;;3.45;0.90;;;24.70;97.10;;;;;;5011402;28;20018;-85
2021/08/10 11:38:23;;;;;;;3.28;1.15;;;24.70;97.10;;;;;;4990267;28;20030;-84
2021/08/10 11:41:04;;;;;;;4.65;1.10;;;24.70;97.00;;;;;;5009986;28;20554;-85
2021/08/10 11:43:34;;;;;;;3.83;0.95;;;24.50;96.80;;;;;;5007721;28;20120;-85
2021/08/10 11:46:02;;;;;;;5.20;1.08;;;24.60;97.30;;;;;;5012024;28;20061;-84
2021/08/10 11:48:42;;;;;;;3.28;1.17;;;24.70;96.80;;;;;;4994414;28;20124;-84
2021/08/10 11:51:25;;;;;;;3.30;1.23;;;24.90;97.50;;;;;;5004166;28;20156;-85
2021/08/10 11:53:53;;;;;;;3.53;1.10;;;25.20;97.30;;;;;;4990658;28;20054;-85
2021/08/10 11:56:27;;;;;;;5.28;1.10;;;25.50;97.50;;;;;;4994900;28;20147;-85
2021/08/10 11:58:56;;;;;;;3.47;1.10;;;25.80;96.30;;;;;;5010884;28;20091;-85
2021/08/10 12:01:22;;;;;;;3.55;1.13;;;25.90;95.80;;;;;;5009423;28;20107;-85
2021/08/10 12:03:48;;;;;;;3.38;1.00;;;26.10;95.90;;;;;;5012063;28;20057;-86
2021/08/10 12:06:14;;;;;;;3.10;0.90;;;26.30;95.40;;;;;;5010921;28;20038;-86
2021/08/10 12:08:41;;;;;;;3.30;1.00;;;26.20;94.90;;;;;;5011052;28;20061;-85
2021/08/10 12:11:07;;;;;;;2.47;0.77;;;26.20;94.60;;;;;;4993280;28;20030;-86
2021/08/10 12:13:32;;;;;;;4.25;0.90;;;25.70;94.50;;;;;;4994586;28;20018;-86
2021/08/10 12:15:58;;;;;;;3.25;1.00;;;25.70;95.00;;;;;;5012204;28;20030;-85
2021/08/10 12:18:26;;;;;;;2.72;0.90;;;25.70;94.70;;;;;;4993899;28;20103;-85
2021/08/10 12:21:03;;;;;;;4.10;1.08;;;26.10;94.90;;;;;;5009301;28;20029;-86
2021/08/10 12:23:43;;;;;;;3.42;1.20;;;26.30;94.80;;;;;;5012092;28;20065;-85
2021/08/10 12:26:16;;;;;;;4.45;1.23;;;26.40;93.90;;;;;;5010984;28;20022;-85
2021/08/10 12:29:06;;;;;;;3.95;0.98;;;26.00;94.40;;;;;;5002566;28;20047;-87
2021/08/10 12:31:34;;;;;;;3.27;1.10;;;26.10;94.00;;;;;;5002977;28;20028;-86
2021/08/10 12:34:00;;;;;;;5.75;0.98;;;25.90;94.10;;;;;;4990005;28;20218;-86
2021/08/10 12:36:27;;;;;;;3.70;1.20;;;25.70;94.00;;;;;;5011450;28;20029;-86
2021/08/10 12:38:53;;;;;;;2.42;0.90;;;25.70;94.00;;;;;;5009524;28;20030;-87
2021/08/10 12:41:24;;;;;;;3.42;1.10;;;25.50;94.30;;;;;;4992243;28;20042;-85
2021/08/10 12:43:52;;;;;;;3.78;1.00;;;25.60;94.70;;;;;;5002754;28;20079;-85
2021/08/10 12:46:32;;;;;;;4.55;1.20;;;25.80;94.30;;;;;;5004193;28;20033;-85
2021/08/10 12:49:08;;;;;;;3.10;1.17;;;25.80;94.40;;;;;;4991584;28;20026;-85
2021/08/10 12:51:57;;;;;;;5.65;1.38;;;25.80;94.80;;;;;;5010380;28;20026;-87
2021/08/10 12:54:25;;;;;;;4.63;1.13;;;25.80;95.00;;;;;;5009225;28;20006;-85